createdAt,value
2018-03-22T00:01:39.135Z,21.20
2018-03-22T00:06:33.791Z,27.73
2018-03-22T00:11:28.938Z,25.87
2018-03-22T00:16:23.321Z,22.93
2018-03-22T00:21:17.984Z,20.70
2018-03-22T00:26:13.198Z,25.77
2018-03-22T00:31:08.497Z,25.77
2018-03-22T00:36:02.817Z,22.30
2018-03-22T00:40:57.416Z,23.37
2018-03-22T00:45:52.658Z,22.30
2018-03-22T00:50:46.977Z,27.10
2018-03-22T00:55:42.062Z,27.70
2018-03-22T01:00:36.362Z,28.97
2018-03-22T01:05:30.725Z,24.47
2018-03-22T01:10:25.056Z,26.93
2018-03-22T01:15:19.432Z,27.23
2018-03-22T01:20:13.738Z,33.10
2018-03-22T01:25:08.055Z,27.07
2018-03-22T01:30:02.370Z,29.07
2018-03-22T01:34:56.700Z,22.80
2018-03-22T01:39:51.080Z,31.53
2018-03-22T01:44:45.575Z,26.37
2018-03-22T01:49:39.898Z,23.80
2018-03-22T01:54:34.218Z,25.90
2018-03-22T01:59:29.306Z,33.23
2018-03-22T02:04:23.618Z,28.53
2018-03-22T02:09:18.107Z,26.47
2018-03-22T02:14:12.448Z,24.27
2018-03-22T02:19:07.717Z,22.77
2018-03-22T02:24:02.033Z,27.30
2018-03-22T02:28:56.328Z,25.47
2018-03-22T02:33:50.726Z,23.17
2018-03-22T02:38:45.034Z,22.87
2018-03-22T02:43:39.501Z,23.63
2018-03-22T02:48:33.813Z,24.47
2018-03-22T02:53:28.178Z,24.10
2018-03-22T02:58:22.484Z,21.73
2018-03-22T03:03:17.573Z,24.23
2018-03-22T03:08:11.926Z,27.30
2018-03-22T03:13:06.432Z,26.37
2018-03-22T03:18:00.756Z,28.43
2018-03-22T03:22:55.299Z,26.93
2018-03-22T03:27:50.386Z,27.43
2018-03-22T03:32:44.940Z,27.47
2018-03-22T03:37:40.010Z,22.47
2018-03-22T03:42:34.318Z,29.47
2018-03-22T03:47:28.630Z,29.17
2018-03-22T03:52:22.789Z,27.10
2018-03-22T03:57:17.108Z,29.17
2018-03-22T04:02:11.432Z,26.30
2018-03-22T04:07:05.901Z,30.70
2018-03-22T04:12:00.328Z,25.53
2018-03-22T04:16:54.627Z,28.13
2018-03-22T04:21:48.952Z,28.33
2018-03-22T04:26:43.350Z,29.50
2018-03-22T04:31:37.754Z,33.00
2018-03-22T04:36:32.177Z,27.50
2018-03-22T04:41:27.552Z,29.50
2018-03-22T04:46:22.059Z,26.77
2018-03-22T04:51:16.538Z,27.73
2018-03-22T04:56:11.611Z,27.97
2018-03-22T05:01:06.290Z,26.50
2018-03-22T05:06:00.638Z,30.70
2018-03-22T05:10:55.952Z,30.67
2018-03-22T05:15:50.453Z,35.67
2018-03-22T05:20:44.856Z,31.23
2018-03-22T05:25:39.166Z,31.53
2018-03-22T05:30:34.995Z,34.13
2018-03-22T05:35:29.165Z,36.80
2018-03-22T05:40:23.495Z,29.50
2018-03-22T05:45:18.513Z,31.60
2018-03-22T05:50:13.022Z,30.07
2018-03-22T05:55:07.630Z,30.83
2018-03-22T06:00:01.970Z,28.43
2018-03-22T06:04:56.412Z,31.57
2018-03-22T06:09:50.735Z,23.77
2018-03-22T06:14:45.241Z,29.10
2018-03-22T06:19:39.764Z,26.73
2018-03-22T06:24:34.117Z,26.27
2018-03-22T06:29:28.525Z,30.63
2018-03-22T06:34:23.235Z,38.77
2018-03-22T06:39:17.534Z,40.77
2018-03-22T06:44:11.955Z,33.90
2018-03-22T06:49:06.248Z,39.03
2018-03-22T06:54:01.144Z,36.77
2018-03-22T06:58:55.453Z,36.87
2018-03-22T07:03:49.764Z,37.20
2018-03-22T07:08:44.060Z,38.60
2018-03-22T07:13:38.364Z,31.80
2018-03-22T07:18:32.738Z,38.00
2018-03-22T07:23:27.043Z,41.93
2018-03-22T07:28:21.357Z,39.37
2018-03-22T07:33:15.666Z,38.53
2018-03-22T07:38:10.014Z,43.37
2018-03-22T07:43:10.008Z,37.63
2018-03-22T07:48:04.331Z,40.20
2018-03-22T07:52:58.954Z,36.73
2018-03-22T07:57:53.290Z,35.47
2018-03-22T08:02:47.606Z,39.73
2018-03-22T08:07:41.933Z,40.10
2018-03-22T08:12:36.237Z,38.13
2018-03-22T08:17:30.560Z,32.13
2018-03-22T08:22:25.650Z,28.97
2018-03-22T08:27:19.973Z,32.30
2018-03-22T08:32:14.299Z,28.87
2018-03-22T08:37:09.521Z,26.10
2018-03-22T08:42:03.994Z,21.63
2018-03-22T08:46:58.405Z,24.20
2018-03-22T08:51:52.927Z,21.57
2018-03-22T08:56:47.994Z,21.70
2018-03-22T09:01:42.306Z,17.90
2018-03-22T09:06:36.641Z,17.13
2018-03-22T09:11:31.737Z,17.47
2018-03-22T09:16:26.093Z,17.30
2018-03-22T09:21:20.419Z,14.67
2018-03-22T09:26:14.730Z,15.63
2018-03-22T09:31:09.045Z,12.93
2018-03-22T09:36:03.363Z,16.03
2018-03-22T09:40:57.801Z,11.80
2018-03-22T09:45:52.120Z,10.90
2018-03-22T09:50:46.688Z,12.73
2018-03-22T09:55:41.788Z,11.83
2018-03-22T10:00:36.216Z,12.00
2018-03-22T10:05:30.532Z,13.97
2018-03-22T10:10:25.618Z,10.83
2018-03-22T10:15:19.931Z,14.77
2018-03-22T10:20:15.108Z,10.27
2018-03-22T10:25:09.464Z,12.37
2018-03-22T10:30:03.538Z,12.20
2018-03-22T10:34:58.915Z,10.37
2018-03-22T10:39:53.246Z,11.47
2018-03-22T10:44:47.536Z,13.67
2018-03-22T10:49:42.232Z,13.37
2018-03-22T10:54:36.559Z,12.03
2018-03-22T10:59:30.876Z,11.73
2018-03-22T11:04:25.178Z,8.97
2018-03-22T11:09:19.652Z,9.00
2018-03-22T11:14:13.970Z,10.00
2018-03-22T11:19:08.286Z,10.60
2018-03-22T11:24:03.395Z,9.20
2018-03-22T11:28:57.961Z,10.53
2018-03-22T11:33:52.332Z,9.17
2018-03-22T11:38:47.448Z,10.57
2018-03-22T11:43:42.522Z,8.70
2018-03-22T11:48:36.828Z,9.13
2018-03-22T11:53:31.207Z,11.20
2018-03-22T11:58:25.506Z,10.27
2018-03-22T12:03:19.994Z,10.87
2018-03-22T12:08:14.318Z,11.87
2018-03-22T12:13:08.654Z,11.13
2018-03-22T12:18:02.980Z,10.50
2018-03-22T12:22:58.206Z,11.50
2018-03-22T12:27:53.291Z,14.27
2018-03-22T12:32:49.366Z,11.90
2018-03-22T12:37:44.462Z,9.37
2018-03-22T12:42:38.839Z,11.77
2018-03-22T12:47:33.192Z,9.87
2018-03-22T12:52:28.284Z,10.47
2018-03-22T12:57:23.556Z,9.23
2018-03-22T13:02:18.020Z,9.70
2018-03-22T13:07:13.091Z,11.07
2018-03-22T13:12:07.459Z,11.43
2018-03-22T13:17:02.662Z,11.10
2018-03-22T13:21:56.997Z,11.90
2018-03-22T13:26:51.313Z,12.23
2018-03-22T13:31:45.651Z,14.53
2018-03-22T13:36:39.944Z,12.37
2018-03-22T13:41:34.269Z,15.27
2018-03-22T13:46:29.442Z,16.10
2018-03-22T13:51:23.867Z,17.87
2018-03-22T13:56:18.183Z,14.00
2018-03-22T14:01:13.496Z,13.90
2018-03-22T14:06:07.827Z,13.63
2018-03-22T14:11:03.056Z,15.17
2018-03-22T14:15:58.129Z,13.43
2018-03-22T14:20:52.440Z,13.77
2018-03-22T14:25:46.767Z,11.60
2018-03-22T14:30:41.909Z,12.50
2018-03-22T14:35:36.237Z,12.53
2018-03-22T14:40:30.514Z,15.60
2018-03-22T14:45:24.843Z,14.43
2018-03-22T14:50:19.245Z,12.57
2018-03-22T14:55:13.565Z,15.20
2018-03-22T15:00:07.874Z,16.37
2018-03-22T15:05:02.425Z,13.67
2018-03-22T15:09:56.753Z,15.90
2018-03-22T15:14:50.856Z,15.03
2018-03-22T15:19:45.217Z,16.00
2018-03-22T15:24:40.292Z,18.83
2018-03-22T15:29:34.849Z,17.67
2018-03-22T15:34:29.312Z,17.20
2018-03-22T15:39:23.629Z,21.00
2018-03-22T15:44:18.107Z,22.13
2018-03-22T15:49:13.171Z,21.83
2018-03-22T15:54:09.044Z,22.00
2018-03-22T15:59:03.362Z,23.57
2018-03-22T16:03:57.819Z,23.40
2018-03-22T16:08:52.881Z,31.63
2018-03-22T16:13:47.215Z,27.47
2018-03-22T16:18:41.505Z,26.73
2018-03-22T16:23:35.804Z,29.67
2018-03-22T16:28:30.931Z,31.97
2018-03-22T16:33:26.134Z,32.87
2018-03-22T16:38:20.688Z,25.30
2018-03-22T16:43:15.785Z,26.40
2018-03-22T16:48:10.973Z,25.80
2018-03-22T16:53:05.572Z,27.23
2018-03-22T16:57:59.902Z,27.77
2018-03-22T17:02:54.232Z,34.80
2018-03-22T17:07:49.761Z,29.57
2018-03-22T17:12:44.244Z,34.70
2018-03-22T17:17:38.730Z,31.40
2018-03-22T17:22:34.259Z,31.20
2018-03-22T17:27:28.560Z,31.60
2018-03-22T17:32:22.685Z,26.33
2018-03-22T17:37:16.992Z,30.37
2018-03-22T17:42:12.113Z,29.60
2018-03-22T17:47:07.273Z,32.20
2018-03-22T17:52:01.783Z,32.70
2018-03-22T17:56:56.140Z,37.63
2018-03-22T18:01:51.197Z,39.23
2018-03-22T18:06:45.645Z,36.77
2018-03-22T18:11:39.784Z,38.33
2018-03-22T18:16:34.102Z,39.30
2018-03-22T18:21:28.426Z,40.37
2018-03-22T18:26:22.742Z,42.03
2018-03-22T18:31:17.050Z,46.57
2018-03-22T18:36:11.881Z,45.07
2018-03-22T18:41:06.382Z,56.87
2018-03-22T18:46:01.545Z,49.10
2018-03-22T18:50:55.872Z,48.10
2018-03-22T18:55:50.189Z,47.13
2018-03-22T19:00:44.516Z,47.67
2018-03-22T19:05:39.710Z,52.60
2018-03-22T19:10:34.020Z,51.17
2018-03-22T19:15:29.127Z,52.37
2018-03-22T19:20:23.436Z,53.87
2018-03-22T19:25:17.756Z,50.03
2018-03-22T19:30:12.945Z,46.93
2018-03-22T19:35:07.271Z,52.57
2018-03-22T19:40:01.595Z,55.17
2018-03-22T19:44:56.127Z,46.67
2018-03-22T19:49:50.459Z,51.37
2018-03-22T19:54:46.276Z,51.60
2018-03-22T19:59:40.604Z,45.70
2018-03-22T20:04:35.091Z,49.03
2018-03-22T20:09:29.508Z,44.97
2018-03-22T20:14:23.819Z,45.77
2018-03-22T20:19:18.334Z,49.40
2018-03-22T20:24:13.454Z,47.00
2018-03-22T20:29:08.599Z,48.17
2018-03-22T20:34:03.044Z,43.17
2018-03-22T20:38:57.346Z,45.93
2018-03-22T20:43:51.682Z,47.97
2018-03-22T20:48:46.774Z,48.40
2018-03-22T20:53:41.132Z,46.53
2018-03-22T20:58:35.450Z,53.30
2018-03-22T21:03:29.775Z,47.77
2018-03-22T21:08:24.072Z,52.13
2018-03-22T21:13:18.402Z,51.77
2018-03-22T21:18:12.802Z,48.37
2018-03-22T21:23:07.132Z,52.83
2018-03-22T21:28:01.461Z,51.60
2018-03-22T21:32:55.605Z,56.93
2018-03-22T21:37:49.918Z,54.60
2018-03-22T21:42:44.256Z,55.00
2018-03-22T21:47:38.586Z,56.20
2018-03-22T21:52:45.053Z,49.27
2018-03-22T21:57:39.374Z,51.43
2018-03-22T22:02:34.008Z,48.30
2018-03-22T22:07:29.107Z,48.33
2018-03-22T22:12:23.648Z,44.40
2018-03-22T22:17:18.032Z,48.70
2018-03-22T22:22:13.143Z,49.83
2018-03-22T22:27:07.546Z,46.13
2018-03-22T22:32:01.864Z,46.43
2018-03-22T22:36:56.953Z,55.50
2018-03-22T22:41:51.278Z,49.60
2018-03-22T22:46:45.633Z,48.07
2018-03-22T22:51:40.020Z,48.13
2018-03-22T22:56:34.336Z,50.37
2018-03-22T23:01:28.664Z,48.60
2018-03-22T23:06:23.762Z,46.50
2018-03-22T23:11:18.372Z,45.20
2018-03-22T23:16:12.736Z,44.83
2018-03-22T23:21:07.841Z,47.30
2018-03-22T23:26:02.843Z,45.00
2018-03-22T23:30:57.384Z,47.47
2018-03-22T23:35:51.757Z,46.17
2018-03-22T23:40:46.204Z,53.27
2018-03-22T23:45:40.668Z,47.80
2018-03-22T23:50:35.213Z,52.33
2018-03-22T23:55:29.620Z,52.43
